Time;durP1;ratioP1;P1;durP2;ratioP2;P2;SDS_P1;SDS_P2;PMS_P1;PMS_P2;Temp;Humidity;BMP_temperature;BMP_pressure;BME280_temperature;BME280_humidity;BME280_pressure;Samples;Min_cycle;Max_cycle;Signal;HPM_P1;HPM_P2
2023/12/12 00:01:22;;;;;;;16.52;3.20;;;9.00;99.90;;;;;;5073185;28;20210;-53
2023/12/12 00:03:48;;;;;;;16.48;3.10;;;8.90;99.90;;;;;;5091351;28;20672;-55
2023/12/12 00:06:14;;;;;;;15.07;3.05;;;8.90;99.90;;;;;;5091469;28;20209;-55
2023/12/12 00:08:39;;;;;;;17.73;3.10;;;8.90;99.90;;;;;;5091237;28;20240;-55
2023/12/12 00:11:06;;;;;;;13.95;3.17;;;9.00;99.90;;;;;;5091395;28;20296;-55
2023/12/12 00:13:31;;;;;;;10.95;3.35;;;9.00;99.90;;;;;;5091413;28;20201;-53
2023/12/12 00:15:57;;;;;;;17.30;3.65;;;9.00;99.90;;;;;;5091597;28;20570;-54
2023/12/12 00:18:22;;;;;;;10.88;3.45;;;9.00;99.90;;;;;;5091409;28;20234;-55
2023/12/12 00:20:48;;;;;;;17.77;3.45;;;9.00;99.90;;;;;;5091036;28;20180;-56
2023/12/12 00:23:14;;;;;;;26.38;4.03;;;8.90;99.90;;;;;;5091374;28;20173;-55
2023/12/12 00:25:39;;;;;;;13.82;3.35;;;8.90;99.90;;;;;;5091063;28;20555;-56
2023/12/12 00:28:05;;;;;;;25.73;4.40;;;9.00;99.90;;;;;;5100197;28;20173;-55
2023/12/12 00:30:30;;;;;;;16.83;3.20;;;9.00;99.90;;;;;;5110933;28;20230;-52
2023/12/12 00:32:56;;;;;;;26.88;4.35;;;9.00;99.90;;;;;;5115670;28;20175;-53
2023/12/12 00:35:22;;;;;;;16.70;4.00;;;9.00;99.90;;;;;;5115124;28;20636;-48
2023/12/12 00:37:47;;;;;;;16.35;4.50;;;8.90;99.90;;;;;;5115279;28;20180;-49
2023/12/12 00:40:13;;;;;;;20.45;4.13;;;8.90;99.90;;;;;;5114959;28;20168;-47
2023/12/12 00:42:38;;;;;;;12.45;2.90;;;8.90;99.90;;;;;;5115130;28;20190;-54
2023/12/12 00:45:06;;;;;;;12.93;3.22;;;8.90;99.90;;;;;;5114919;28;20200;-54
2023/12/12 00:47:31;;;;;;;14.73;3.92;;;8.90;99.90;;;;;;5115155;28;20187;-55
2023/12/12 00:49:57;;;;;;;17.25;3.20;;;8.90;99.90;;;;;;5115620;28;20680;-56
2023/12/12 00:52:23;;;;;;;16.63;4.28;;;8.90;99.90;;;;;;5114567;28;20620;-57
2023/12/12 00:54:49;;;;;;;15.52;2.78;;;8.80;99.90;;;;;;5114684;28;20217;-57
2023/12/12 00:57:14;;;;;;;17.80;3.90;;;8.80;99.90;;;;;;5112320;28;20165;-56
2023/12/12 00:59:40;;;;;;;18.50;3.42;;;8.80;99.90;;;;;;5094297;28;20529;-56
2023/12/12 01:02:05;;;;;;;18.17;3.40;;;8.80;99.90;;;;;;5100541;28;20720;-56
2023/12/12 01:04:34;;;;;;;15.15;3.50;;;8.80;99.90;;;;;;5114663;28;20161;-56
2023/12/12 01:07:00;;;;;;;12.15;3.47;;;8.70;99.90;;;;;;5114755;28;20587;-46
2023/12/12 01:09:26;;;;;;;18.85;4.30;;;8.80;99.90;;;;;;5115042;28;20172;-56
2023/12/12 01:11:52;;;;;;;17.55;3.72;;;8.80;99.90;;;;;;5114282;28;20559;-56
2023/12/12 01:14:17;;;;;;;22.48;3.45;;;8.70;99.90;;;;;;5114150;28;20517;-57
2023/12/12 01:16:43;;;;;;;16.70;3.78;;;8.80;99.90;;;;;;5114364;28;20568;-56
2023/12/12 01:19:08;;;;;;;15.65;3.80;;;8.70;99.90;;;;;;5114293;28;20627;-56
2023/12/12 01:21:34;;;;;;;16.02;2.83;;;8.80;99.90;;;;;;5114348;28;20165;-56
2023/12/12 01:24:00;;;;;;;16.77;3.13;;;8.70;99.90;;;;;;5114706;28;20164;-47
2023/12/12 01:26:26;;;;;;;14.05;2.95;;;8.70;99.90;;;;;;5114629;28;20177;-56
2023/12/12 01:28:52;;;;;;;17.13;3.25;;;8.70;99.90;;;;;;5098312;28;20173;-48
2023/12/12 01:31:18;;;;;;;20.10;3.90;;;8.70;99.90;;;;;;5093780;28;20197;-48
2023/12/12 01:33:44;;;;;;;26.10;3.30;;;8.60;99.90;;;;;;5094037;28;20165;-48
2023/12/12 01:36:10;;;;;;;18.88;3.55;;;8.60;99.90;;;;;;5093794;28;20532;-47
2023/12/12 01:38:36;;;;;;;15.27;3.85;;;8.60;99.90;;;;;;5093595;28;20173;-47
2023/12/12 01:41:02;;;;;;;23.52;3.88;;;8.60;99.90;;;;;;5093462;28;20162;-48
2023/12/12 01:43:29;;;;;;;19.30;3.55;;;8.80;99.90;;;;;;5092980;28;20169;-47
2023/12/12 01:45:58;;;;;;;12.35;3.17;;;8.70;99.90;;;;;;5094137;28;20218;-48
2023/12/12 01:48:24;;;;;;;13.20;4.00;;;8.70;99.90;;;;;;5093322;28;20165;-51
2023/12/12 01:50:51;;;;;;;18.90;3.35;;;8.70;99.90;;;;;;5093506;28;20648;-48
2023/12/12 01:53:19;;;;;;;15.93;3.47;;;8.60;99.90;;;;;;5093129;28;20224;-47
2023/12/12 01:55:48;;;;;;;21.13;3.67;;;8.70;99.90;;;;;;5093280;28;20200;-48
2023/12/12 01:58:13;;;;;;;18.38;3.55;;;8.70;99.90;;;;;;5093285;28;20165;-46
2023/12/12 02:00:39;;;;;;;18.42;3.97;;;8.70;99.90;;;;;;5093174;28;20253;-45
2023/12/12 02:03:05;;;;;;;19.00;4.32;;;8.70;99.90;;;;;;5093201;28;20161;-47
2023/12/12 02:05:31;;;;;;;20.70;4.20;;;8.70;99.90;;;;;;5093244;28;20256;-47
2023/12/12 02:07:58;;;;;;;20.40;3.55;;;8.70;99.90;;;;;;5093403;28;20169;-47
2023/12/12 02:10:24;;;;;;;16.05;3.25;;;8.70;99.90;;;;;;5092967;28;20166;-47
2023/12/12 02:12:49;;;;;;;17.88;4.70;;;8.70;99.90;;;;;;5092873;28;20657;-47
2023/12/12 02:15:15;;;;;;;21.08;3.45;;;8.70;99.90;;;;;;5092912;28;20594;-46
2023/12/12 02:17:41;;;;;;;18.77;3.90;;;8.60;99.90;;;;;;5074769;28;20203;-46
2023/12/12 02:20:07;;;;;;;12.93;3.63;;;8.60;99.90;;;;;;5099873;28;20221;-50
2023/12/12 02:22:33;;;;;;;15.48;2.97;;;8.70;99.90;;;;;;5113097;28;20218;-46
2023/12/12 02:24:58;;;;;;;17.85;3.90;;;8.70;99.90;;;;;;5113614;28;20168;-47
2023/12/12 02:27:25;;;;;;;28.13;4.10;;;8.70;99.90;;;;;;5113004;28;20560;-48
2023/12/12 02:29:50;;;;;;;25.95;3.88;;;8.60;99.90;;;;;;5094196;28;20205;-46
2023/12/12 02:32:16;;;;;;;20.17;3.80;;;8.60;99.90;;;;;;5092495;28;20247;-47
2023/12/12 02:34:42;;;;;;;17.15;3.80;;;8.60;99.90;;;;;;5092526;28;20169;-52
2023/12/12 02:37:08;;;;;;;18.88;3.92;;;8.70;99.90;;;;;;5092528;28;20200;-46
2023/12/12 02:39:33;;;;;;;11.32;3.70;;;8.70;99.90;;;;;;5092413;28;20193;-46
2023/12/12 02:41:59;;;;;;;22.50;3.95;;;8.70;99.90;;;;;;5104382;28;20176;-47
2023/12/12 02:44:25;;;;;;;20.08;4.18;;;8.70;99.90;;;;;;5112977;28;20172;-46
2023/12/12 02:46:50;;;;;;;23.83;4.85;;;8.80;99.90;;;;;;5112655;28;20172;-48
2023/12/12 02:49:16;;;;;;;23.52;4.38;;;8.70;99.90;;;;;;5112586;28;20243;-52
2023/12/12 02:51:41;;;;;;;20.08;3.90;;;8.70;99.90;;;;;;5112438;28;20311;-49
2023/12/12 02:54:07;;;;;;;25.23;4.15;;;8.80;99.90;;;;;;5112235;28;20176;-51
2023/12/12 02:56:33;;;;;;;22.77;5.22;;;8.80;99.90;;;;;;5112412;28;20244;-48
2023/12/12 02:58:59;;;;;;;22.98;4.95;;;8.80;99.90;;;;;;5101698;28;20252;-49
2023/12/12 03:01:24;;;;;;;22.13;3.70;;;8.90;99.90;;;;;;5092052;28;20177;-48
2023/12/12 03:03:50;;;;;;;26.17;4.43;;;8.70;99.90;;;;;;5092136;28;20169;-52
2023/12/12 03:06:16;;;;;;;26.63;4.10;;;8.80;99.90;;;;;;5091966;28;20166;-49
2023/12/12 03:08:41;;;;;;;20.00;4.03;;;8.80;99.90;;;;;;5091921;28;20218;-50
2023/12/12 03:11:07;;;;;;;23.33;3.88;;;8.80;99.90;;;;;;5091877;28;20193;-51
2023/12/12 03:13:33;;;;;;;17.80;3.88;;;8.70;99.90;;;;;;5091837;28;20165;-55
2023/12/12 03:15:58;;;;;;;21.50;4.20;;;8.70;99.90;;;;;;5092238;28;20624;-56
2023/12/12 03:18:24;;;;;;;17.13;3.45;;;8.80;99.90;;;;;;5091799;28;20256;-56
2023/12/12 03:20:50;;;;;;;20.27;4.43;;;8.70;99.90;;;;;;5091742;28;20171;-55
2023/12/12 03:23:15;;;;;;;21.20;4.28;;;8.80;99.90;;;;;;5091624;28;20640;-55
2023/12/12 03:25:41;;;;;;;24.92;3.75;;;8.80;99.90;;;;;;5091789;28;20169;-56
2023/12/12 03:28:06;;;;;;;21.55;3.63;;;8.70;99.90;;;;;;5091921;28;20528;-56
2023/12/12 03:30:32;;;;;;;16.98;4.22;;;8.70;99.90;;;;;;5091802;28;20649;-55
2023/12/12 03:32:57;;;;;;;24.20;4.32;;;8.80;99.90;;;;;;5091947;28;20696;-56
2023/12/12 03:35:23;;;;;;;22.50;4.15;;;8.70;99.90;;;;;;5091514;28;20544;-56
2023/12/12 03:37:49;;;;;;;24.98;3.88;;;8.70;99.90;;;;;;5091546;28;20636;-56
2023/12/12 03:40:14;;;;;;;22.55;4.30;;;8.50;99.90;;;;;;5091526;28;20162;-56
2023/12/12 03:42:40;;;;;;;24.20;4.50;;;8.50;99.90;;;;;;5091756;28;20173;-56
2023/12/12 03:45:06;;;;;;;16.67;4.05;;;8.60;99.90;;;;;;5091433;28;20210;-56
2023/12/12 03:47:31;;;;;;;16.30;3.90;;;8.60;99.90;;;;;;5091447;28;20521;-55
2023/12/12 03:49:57;;;;;;;27.48;6.40;;;8.60;99.90;;;;;;5091875;28;20161;-55
2023/12/12 03:52:23;;;;;;;19.58;3.58;;;8.50;99.90;;;;;;5091292;28;20233;-55
2023/12/12 03:54:48;;;;;;;20.77;4.97;;;8.60;99.90;;;;;;5091339;28;20652;-56
2023/12/12 03:57:14;;;;;;;21.33;4.72;;;8.40;99.90;;;;;;5091292;28;20555;-56
2023/12/12 03:59:40;;;;;;;22.38;5.07;;;8.50;99.90;;;;;;5106690;28;20165;-56
2023/12/12 04:02:05;;;;;;;28.80;4.65;;;8.50;99.90;;;;;;5111650;28;20172;-56
2023/12/12 04:04:31;;;;;;;18.73;3.75;;;8.50;99.90;;;;;;5111543;28;20169;-56
2023/12/12 04:06:57;;;;;;;22.38;5.03;;;8.40;99.90;;;;;;5114638;28;20164;-52
2023/12/12 04:09:22;;;;;;;23.63;5.53;;;8.40;99.90;;;;;;5115671;28;20165;-55
2023/12/12 04:11:48;;;;;;;19.83;4.88;;;8.40;99.90;;;;;;5115535;28;20204;-55
2023/12/12 04:14:13;;;;;;;19.88;4.28;;;8.50;99.90;;;;;;5115585;28;20161;-55
2023/12/12 04:16:39;;;;;;;23.92;4.65;;;8.50;99.90;;;;;;5115816;28;20169;-54
2023/12/12 04:19:04;;;;;;;22.27;4.53;;;8.60;99.90;;;;;;5115527;28;20628;-56
2023/12/12 04:21:30;;;;;;;22.08;3.97;;;8.50;99.90;;;;;;5115447;28;20260;-55
2023/12/12 04:23:56;;;;;;;25.20;4.65;;;8.50;99.90;;;;;;5116127;28;20193;-55
2023/12/12 04:26:21;;;;;;;29.75;5.80;;;8.60;99.90;;;;;;5115585;28;20164;-55
2023/12/12 04:28:47;;;;;;;18.10;4.70;;;8.50;99.90;;;;;;5106429;28;20252;-50
2023/12/12 04:31:14;;;;;;;20.50;4.55;;;8.40;99.90;;;;;;5095029;28;20234;-48
2023/12/12 04:33:40;;;;;;;17.80;4.30;;;8.50;99.90;;;;;;5095079;28;20177;-52
2023/12/12 04:36:06;;;;;;;20.27;4.18;;;8.20;99.90;;;;;;5094733;28;20290;-49
2023/12/12 04:38:33;;;;;;;19.88;4.85;;;8.20;99.90;;;;;;5094711;28;20169;-49
2023/12/12 04:41:03;;;;;;;21.75;4.20;;;8.20;99.90;;;;;;5095166;28;20173;-48
2023/12/12 04:43:29;;;;;;;19.48;3.88;;;8.30;99.90;;;;;;5095318;28;20169;-48
2023/12/12 04:45:55;;;;;;;16.60;3.83;;;8.20;99.90;;;;;;5095255;28;20169;-48
2023/12/12 04:48:21;;;;;;;9.98;3.33;;;8.20;99.90;;;;;;5094524;28;20202;-48
2023/12/12 04:50:46;;;;;;;15.05;4.15;;;8.20;99.90;;;;;;5094331;28;20179;-47
2023/12/12 04:53:12;;;;;;;23.05;3.97;;;8.30;99.90;;;;;;5094234;28;20213;-49
2023/12/12 04:55:37;;;;;;;17.52;3.70;;;8.20;99.90;;;;;;5094535;28;20252;-50
2023/12/12 04:58:03;;;;;;;22.38;4.47;;;8.20;99.90;;;;;;5094667;28;20252;-49
2023/12/12 05:00:29;;;;;;;16.63;3.78;;;8.20;99.90;;;;;;5094738;28;20214;-52
2023/12/12 05:02:54;;;;;;;15.27;4.20;;;8.10;99.90;;;;;;5094828;28;20551;-47
2023/12/12 05:05:20;;;;;;;18.30;4.60;;;8.10;99.90;;;;;;5094308;28;20181;-47
2023/12/12 05:07:45;;;;;;;21.27;4.65;;;7.90;99.90;;;;;;5094306;28;20222;-48
2023/12/12 05:10:11;;;;;;;16.65;4.63;;;8.00;99.90;;;;;;5094258;28;20311;-46
2023/12/12 05:12:36;;;;;;;9.75;3.28;;;8.00;99.90;;;;;;5094117;28;20216;-47
2023/12/12 05:15:02;;;;;;;18.17;4.00;;;8.00;99.90;;;;;;5093980;28;20170;-47
2023/12/12 05:17:28;;;;;;;15.15;4.25;;;8.10;99.90;;;;;;5094199;28;20166;-53
2023/12/12 05:19:53;;;;;;;19.23;3.53;;;8.00;99.90;;;;;;5093922;28;20221;-56
2023/12/12 05:22:19;;;;;;;30.60;5.20;;;8.00;99.90;;;;;;5093889;28;20238;-50
2023/12/12 05:24:44;;;;;;;17.20;3.88;;;8.10;99.90;;;;;;5093803;28;20242;-53
2023/12/12 05:27:10;;;;;;;20.65;4.10;;;8.20;99.90;;;;;;5093780;28;20172;-50
2023/12/12 05:29:35;;;;;;;26.35;3.88;;;8.20;99.90;;;;;;5111134;28;20177;-56
2023/12/12 05:32:01;;;;;;;19.30;3.53;;;8.20;99.90;;;;;;5113922;28;20196;-55
2023/12/12 05:34:27;;;;;;;13.60;3.50;;;8.30;99.90;;;;;;5114572;28;20173;-56
2023/12/12 05:36:52;;;;;;;14.98;3.60;;;8.30;99.90;;;;;;5113985;28;20586;-54
2023/12/12 05:39:18;;;;;;;13.93;3.40;;;8.50;99.90;;;;;;5113959;28;20509;-51
2023/12/12 05:41:44;;;;;;;21.63;4.32;;;8.50;99.90;;;;;;5113952;28;20619;-56
2023/12/12 05:44:09;;;;;;;18.20;3.42;;;8.60;99.90;;;;;;5113868;28;20688;-56
2023/12/12 05:46:35;;;;;;;19.48;3.70;;;8.50;99.90;;;;;;5113836;28;20157;-56
2023/12/12 05:49:00;;;;;;;15.63;4.47;;;8.60;99.90;;;;;;5113569;28;20217;-55
2023/12/12 05:51:26;;;;;;;13.38;3.50;;;8.60;99.90;;;;;;5113616;28;20286;-55
2023/12/12 05:53:52;;;;;;;16.52;3.97;;;8.60;99.90;;;;;;5113823;28;20255;-54
2023/12/12 05:56:18;;;;;;;19.27;3.08;;;8.60;99.90;;;;;;5113487;28;20169;-56
2023/12/12 05:58:44;;;;;;;19.85;3.60;;;8.70;99.90;;;;;;5107512;28;20181;-55
2023/12/12 06:01:09;;;;;;;15.75;3.63;;;8.80;99.90;;;;;;5109838;28;20168;-54
2023/12/12 06:03:35;;;;;;;16.23;3.80;;;8.70;99.90;;;;;;5112983;28;20242;-54
2023/12/12 06:06:02;;;;;;;18.77;3.95;;;8.80;99.90;;;;;;5112994;28;20682;-56
2023/12/12 06:08:28;;;;;;;20.25;4.07;;;8.70;99.90;;;;;;5113511;28;20176;-54
2023/12/12 06:10:53;;;;;;;18.13;4.57;;;8.80;99.90;;;;;;5112513;28;20240;-52
2023/12/12 06:13:19;;;;;;;23.25;4.78;;;8.70;99.90;;;;;;5112745;28;20204;-55
2023/12/12 06:15:44;;;;;;;17.10;3.65;;;8.70;99.90;;;;;;5112637;28;20192;-53
2023/12/12 06:18:10;;;;;;;26.23;5.57;;;8.70;99.90;;;;;;5112590;28;20165;-50
2023/12/12 06:20:35;;;;;;;15.32;4.18;;;8.60;99.90;;;;;;5112425;28;20168;-52
2023/12/12 06:23:01;;;;;;;14.35;4.22;;;8.60;99.90;;;;;;5112404;28;20173;-55
2023/12/12 06:25:27;;;;;;;14.52;3.78;;;8.70;99.90;;;;;;5113005;28;20165;-57
2023/12/12 06:27:52;;;;;;;15.50;3.90;;;8.70;99.90;;;;;;5106651;28;20180;-55
2023/12/12 06:30:18;;;;;;;13.02;3.90;;;8.80;99.90;;;;;;5091391;28;20181;-56
2023/12/12 06:32:45;;;;;;;14.25;3.72;;;8.70;99.90;;;;;;5091774;28;20212;-55
2023/12/12 06:35:11;;;;;;;21.45;5.32;;;8.60;99.90;;;;;;5091898;28;20628;-56
2023/12/12 06:37:37;;;;;;;24.70;6.38;;;8.70;99.90;;;;;;5091716;28;20179;-55
2023/12/12 06:40:03;;;;;;;19.38;4.88;;;8.80;99.90;;;;;;5091698;28;20169;-50
2023/12/12 06:42:29;;;;;;;21.60;3.90;;;8.70;99.90;;;;;;5091807;28;20165;-47
2023/12/12 06:44:55;;;;;;;24.35;5.43;;;8.70;99.90;;;;;;5092111;28;20176;-49
2023/12/12 06:47:21;;;;;;;24.08;4.28;;;8.70;99.90;;;;;;5091517;28;20165;-55
2023/12/12 06:49:46;;;;;;;19.33;5.68;;;8.70;99.90;;;;;;5091067;28;20822;-50
2023/12/12 06:52:12;;;;;;;22.30;5.30;;;8.70;99.90;;;;;;5090844;28;20225;-50
2023/12/12 06:54:37;;;;;;;12.88;4.35;;;8.80;99.90;;;;;;5090784;28;20521;-54
2023/12/12 06:57:03;;;;;;;15.93;4.15;;;8.80;99.90;;;;;;5090739;28;20188;-54
2023/12/12 06:59:29;;;;;;;19.65;4.75;;;8.80;99.90;;;;;;5091059;28;20183;-50
2023/12/12 07:01:55;;;;;;;19.35;4.05;;;8.80;99.90;;;;;;5091052;28;20222;-55
2023/12/12 07:04:21;;;;;;;18.20;5.20;;;8.70;99.90;;;;;;5090953;28;20170;-55
2023/12/12 07:06:47;;;;;;;22.00;4.90;;;8.80;99.90;;;;;;5090750;28;20173;-56
2023/12/12 07:09:12;;;;;;;18.30;3.90;;;8.90;99.90;;;;;;5090376;28;20196;-57
2023/12/12 07:11:38;;;;;;;18.95;6.55;;;8.80;99.90;;;;;;5091174;28;20255;-58
2023/12/12 07:14:04;;;;;;;17.50;4.10;;;8.80;99.90;;;;;;5090830;28;20537;-56
2023/12/12 07:16:30;;;;;;;18.98;4.97;;;8.70;99.90;;;;;;5090919;28;20176;-56
2023/12/12 07:18:58;;;;;;;19.88;4.53;;;8.70;99.90;;;;;;5091302;28;20169;-57
2023/12/12 07:21:23;;;;;;;12.63;4.00;;;8.70;99.90;;;;;;5106895;28;20259;-57
2023/12/12 07:23:51;;;;;;;14.20;4.25;;;8.70;99.90;;;;;;5109508;28;20275;-61
2023/12/12 07:26:18;;;;;;;11.77;3.60;;;8.70;99.90;;;;;;5109692;28;20638;-60
2023/12/12 07:28:43;;;;;;;15.35;4.47;;;8.60;99.90;;;;;;5094667;28;20210;-53
2023/12/12 07:31:10;;;;;;;18.55;3.70;;;8.70;99.90;;;;;;5088749;28;20251;-55
2023/12/12 07:33:36;;;;;;;23.13;3.95;;;8.70;99.90;;;;;;5089066;28;20697;-57
2023/12/12 07:36:02;;;;;;;14.82;3.40;;;8.60;99.90;;;;;;5093653;28;20177;-56
2023/12/12 07:38:27;;;;;;;13.38;3.60;;;8.70;99.90;;;;;;5109776;28;20642;-61
2023/12/12 07:40:53;;;;;;;15.90;4.13;;;8.70;99.90;;;;;;5107866;28;20643;-57
2023/12/12 07:43:19;;;;;;;10.60;3.80;;;8.70;99.90;;;;;;5109015;28;20180;-53
2023/12/12 07:45:44;;;;;;;16.23;4.45;;;8.60;99.90;;;;;;5109212;28;20171;-55
2023/12/12 07:48:10;;;;;;;14.43;3.30;;;8.70;99.90;;;;;;5109503;28;20689;-61
2023/12/12 07:50:36;;;;;;;25.73;7.60;;;8.80;99.90;;;;;;5109442;28;20164;-59
2023/12/12 07:53:04;;;;;;;16.48;3.97;;;8.80;99.90;;;;;;5072814;28;1048418;-57
2023/12/12 07:55:31;;;;;;;18.17;3.80;;;8.80;99.90;;;;;;5110002;28;20168;-50
2023/12/12 07:57:57;;;;;;;23.30;5.07;;;8.80;99.90;;;;;;5102867;28;20608;-55
2023/12/12 08:00:22;;;;;;;15.45;4.85;;;8.80;99.90;;;;;;5089591;28;20238;-60
2023/12/12 08:02:48;;;;;;;21.65;5.43;;;8.70;99.90;;;;;;5089482;28;20336;-51
2023/12/12 08:05:13;;;;;;;17.42;5.40;;;8.80;99.90;;;;;;5089599;28;20215;-56
2023/12/12 08:07:39;;;;;;;21.75;5.85;;;8.80;99.90;;;;;;5089610;28;20209;-60
2023/12/12 08:10:06;;;;;;;11.35;4.35;;;8.90;99.90;;;;;;5089606;28;20177;-59
2023/12/12 08:12:31;;;;;;;11.13;3.90;;;8.80;99.90;;;;;;5089504;28;20205;-52
2023/12/12 08:14:57;;;;;;;8.85;3.90;;;8.80;99.90;;;;;;5090263;28;20697;-51
2023/12/12 08:17:22;;;;;;;15.55;4.13;;;8.90;99.90;;;;;;5089460;28;20180;-54
2023/12/12 08:19:48;;;;;;;17.95;4.03;;;8.90;99.90;;;;;;5089376;28;20683;-53
2023/12/12 08:22:14;;;;;;;9.75;4.22;;;9.00;99.90;;;;;;5089278;28;20254;-54
2023/12/12 08:24:39;;;;;;;13.32;3.70;;;8.90;99.90;;;;;;5089481;28;20259;-54
2023/12/12 08:27:06;;;;;;;13.18;3.35;;;9.00;99.90;;;;;;5089396;28;20237;-53
2023/12/12 08:29:31;;;;;;;12.02;2.95;;;9.10;99.90;;;;;;5105387;28;20237;-54
2023/12/12 08:31:57;;;;;;;13.00;3.45;;;9.10;99.90;;;;;;5089730;28;20688;-51
2023/12/12 08:34:23;;;;;;;11.00;3.28;;;9.00;99.90;;;;;;5089317;28;20200;-53
2023/12/12 08:36:49;;;;;;;12.95;3.50;;;9.10;99.90;;;;;;5089319;28;20169;-52
2023/12/12 08:39:14;;;;;;;12.77;3.22;;;9.10;99.90;;;;;;5089331;28;20170;-56
2023/12/12 08:41:40;;;;;;;12.95;3.63;;;9.20;99.90;;;;;;5089245;28;20730;-54
2023/12/12 08:44:05;;;;;;;10.27;3.25;;;9.20;99.90;;;;;;5089593;28;20166;-54
2023/12/12 08:46:31;;;;;;;15.57;3.42;;;9.10;99.90;;;;;;5089336;28;20538;-55
2023/12/12 08:48:57;;;;;;;25.15;4.35;;;9.10;99.90;;;;;;5090048;28;20205;-54
2023/12/12 08:51:24;;;;;;;17.08;3.17;;;9.00;99.90;;;;;;5089304;28;20284;-53
2023/12/12 08:53:51;;;;;;;14.27;3.97;;;9.10;99.90;;;;;;5092616;28;20173;-52
2023/12/12 08:56:17;;;;;;;15.32;3.17;;;9.00;99.90;;;;;;5093183;28;20173;-55
2023/12/12 08:58:43;;;;;;;14.27;4.15;;;9.10;99.90;;;;;;5092829;28;20173;-54
2023/12/12 09:01:09;;;;;;;13.18;3.55;;;9.10;99.90;;;;;;5092714;28;20524;-55
2023/12/12 09:03:35;;;;;;;11.02;3.05;;;9.10;99.90;;;;;;5091878;28;20694;-54
2023/12/12 09:06:01;;;;;;;16.75;3.70;;;9.10;99.90;;;;;;5092683;28;20176;-54
2023/12/12 09:08:27;;;;;;;25.10;3.83;;;9.20;99.90;;;;;;5092956;28;20660;-53
2023/12/12 09:10:53;;;;;;;12.13;2.72;;;9.10;99.90;;;;;;5092683;28;20256;-51
2023/12/12 09:13:18;;;;;;;12.85;3.13;;;9.30;99.90;;;;;;5092476;28;20255;-49
2023/12/12 09:15:44;;;;;;;16.67;4.32;;;9.30;99.90;;;;;;5092311;28;20533;-53
2023/12/12 09:18:10;;;;;;;13.00;3.55;;;9.30;99.90;;;;;;5092754;28;20578;-49
2023/12/12 09:20:35;;;;;;;11.93;3.53;;;9.20;99.90;;;;;;5092307;28;20165;-49
2023/12/12 09:23:01;;;;;;;11.93;3.60;;;9.30;99.90;;;;;;5092280;28;20174;-50
2023/12/12 09:25:27;;;;;;;11.38;3.50;;;9.40;99.90;;;;;;5092415;28;20169;-49
2023/12/12 09:27:52;;;;;;;11.43;3.00;;;9.50;99.90;;;;;;5099993;28;20513;-49
2023/12/12 09:30:18;;;;;;;11.27;3.33;;;9.60;99.90;;;;;;5112033;28;20237;-50
2023/12/12 09:32:43;;;;;;;12.18;3.63;;;9.70;99.90;;;;;;5112326;28;20243;-47
2023/12/12 09:35:10;;;;;;;23.15;8.23;;;9.70;99.90;;;;;;5112438;28;20220;-46
2023/12/12 09:37:35;;;;;;;15.50;3.60;;;9.70;99.90;;;;;;5112314;28;20169;-47
2023/12/12 09:40:04;;;;;;;13.45;3.40;;;9.70;99.90;;;;;;5112463;28;20180;-47
2023/12/12 09:42:32;;;;;;;11.70;3.25;;;9.80;99.90;;;;;;5112520;28;20180;-46
2023/12/12 09:45:00;;;;;;;12.48;2.95;;;9.90;99.90;;;;;;5112775;28;20163;-53
2023/12/12 09:47:27;;;;;;;22.55;3.38;;;9.80;99.90;;;;;;5112755;28;20177;-50
2023/12/12 09:49:55;;;;;;;12.40;3.00;;;9.80;99.90;;;;;;5112241;28;20510;-54
2023/12/12 09:52:22;;;;;;;7.80;2.92;;;9.80;99.90;;;;;;5111920;28;20258;-49
2023/12/12 09:54:49;;;;;;;13.50;3.35;;;9.80;99.90;;;;;;5112026;28;20697;-54
2023/12/12 09:57:17;;;;;;;8.50;3.30;;;9.80;99.90;;;;;;5111306;28;20242;-54
2023/12/12 09:59:43;;;;;;;9.02;2.72;;;9.90;99.90;;;;;;5111852;28;20506;-53
2023/12/12 10:02:17;;;;;;;11.30;3.17;;;9.80;99.90;;;;;;5112102;28;20178;-53
2023/12/12 10:04:44;;;;;;;10.07;3.47;;;10.00;99.90;;;;;;5090071;28;20157;-53
2023/12/12 10:07:13;;;;;;;16.15;4.07;;;10.40;99.90;;;;;;5091360;28;20205;-53
2023/12/12 10:09:39;;;;;;;9.85;2.75;;;10.60;99.90;;;;;;5091147;28;20637;-53
2023/12/12 10:12:05;;;;;;;13.18;3.88;;;10.80;99.90;;;;;;5090947;28;20262;-53
2023/12/12 10:14:41;;;;;;;11.43;3.47;;;11.00;99.90;;;;;;5091121;28;20196;-51
2023/12/12 10:17:10;;;;;;;8.38;3.03;;;11.00;99.90;;;;;;5073018;28;20577;-52
2023/12/12 10:19:39;;;;;;;6.32;2.67;;;10.80;99.90;;;;;;5090995;28;20177;-49
2023/12/12 10:22:06;;;;;;;6.60;2.63;;;10.60;99.90;;;;;;5091338;28;20205;-54
2023/12/12 10:24:32;;;;;;;6.35;2.20;;;10.60;99.90;;;;;;5090872;28;20210;-54
2023/12/12 10:26:58;;;;;;;5.80;2.75;;;10.60;99.90;;;;;;5073461;28;20169;-54
2023/12/12 10:29:24;;;;;;;7.85;2.65;;;10.50;99.90;;;;;;5073392;28;20541;-54
2023/12/12 10:31:52;;;;;;;10.88;2.53;;;10.50;99.90;;;;;;5090921;28;20204;-54
2023/12/12 10:34:17;;;;;;;9.60;2.72;;;10.50;99.90;;;;;;5090933;28;20177;-54
2023/12/12 10:36:47;;;;;;;8.30;2.30;;;10.50;99.90;;;;;;5090832;28;20521;-51
2023/12/12 10:39:14;;;;;;;8.18;2.30;;;10.40;99.90;;;;;;5091042;28;20165;-54
2023/12/12 10:41:40;;;;;;;8.20;2.10;;;10.40;99.90;;;;;;5090579;28;20165;-54
2023/12/12 10:44:08;;;;;;;6.20;2.15;;;10.40;99.90;;;;;;5090738;28;20553;-53
2023/12/12 10:46:38;;;;;;;8.50;2.15;;;10.40;99.90;;;;;;5090707;28;20490;-53
2023/12/12 10:49:05;;;;;;;5.65;1.73;;;10.30;99.90;;;;;;5090538;28;20161;-54
2023/12/12 10:51:32;;;;;;;14.13;4.78;;;10.20;99.90;;;;;;5090394;28;20228;-54
2023/12/12 10:53:59;;;;;;;5.10;2.38;;;10.10;99.90;;;;;;5090937;28;20200;-53
2023/12/12 10:56:24;;;;;;;4.65;1.45;;;10.10;99.90;;;;;;5091249;28;20169;-54
2023/12/12 10:58:51;;;;;;;5.90;2.00;;;10.00;99.90;;;;;;5107579;28;20176;-54
2023/12/12 11:01:17;;;;;;;8.35;2.58;;;9.80;99.90;;;;;;5110746;28;20156;-54
2023/12/12 11:03:44;;;;;;;4.68;2.10;;;10.00;99.90;;;;;;5110651;28;20225;-54
2023/12/12 11:06:10;;;;;;;4.97;3.00;;;10.00;99.90;;;;;;5110645;28;20251;-54
2023/12/12 11:08:36;;;;;;;13.52;4.72;;;9.90;99.90;;;;;;5093620;28;20209;-55
2023/12/12 11:11:09;;;;;;;16.40;7.03;;;10.00;99.90;;;;;;5090184;28;20176;-54
2023/12/12 11:13:36;;;;;;;20.75;7.82;;;9.90;99.90;;;;;;5090190;28;20165;-54
2023/12/12 11:16:04;;;;;;;18.40;8.75;;;9.80;99.90;;;;;;5090020;28;20181;-54
2023/12/12 11:18:31;;;;;;;29.73;12.07;;;9.70;99.90;;;;;;5090276;28;20161;-54
2023/12/12 11:20:56;;;;;;;20.05;9.88;;;9.80;99.90;;;;;;5090765;28;20176;-54
2023/12/12 11:23:53;;;;;;;14.15;5.70;;;9.60;99.90;;;;;;5090271;28;20177;-54
2023/12/12 11:26:20;;;;;;;14.90;7.05;;;9.60;99.90;;;;;;5090310;28;20617;-55
2023/12/12 11:28:48;;;;;;;27.98;11.23;;;9.50;99.90;;;;;;5106641;28;20633;-54
2023/12/12 11:31:21;;;;;;;14.38;7.20;;;9.60;99.90;;;;;;5110239;28;20163;-55
2023/12/12 11:34:09;;;;;;;21.08;7.05;;;9.70;99.90;;;;;;5110278;28;20559;-55
2023/12/12 11:36:57;;;;;;;12.52;5.25;;;9.60;99.90;;;;;;5110627;28;20191;-54
2023/12/12 11:39:52;;;;;;;15.48;4.57;;;9.40;99.90;;;;;;5110107;28;20192;-54
2023/12/12 11:42:22;;;;;;;15.90;5.85;;;9.50;99.90;;;;;;5110137;28;20591;-53
2023/12/12 11:44:50;;;;;;;17.60;5.65;;;9.40;99.90;;;;;;5110118;28;20248;-54
2023/12/12 11:47:19;;;;;;;19.67;7.95;;;9.50;99.90;;;;;;5110358;28;20173;-54
2023/12/12 11:49:45;;;;;;;16.98;6.55;;;9.40;99.90;;;;;;5110065;28;20172;-53
2023/12/12 11:52:11;;;;;;;21.10;6.63;;;9.40;99.90;;;;;;5110054;28;20265;-49
2023/12/12 11:54:38;;;;;;;18.63;7.47;;;9.50;99.90;;;;;;5110124;28;20176;-53
2023/12/12 11:57:04;;;;;;;19.40;6.68;;;9.60;99.90;;;;;;5104520;28;20178;-54
2023/12/12 11:59:32;;;;;;;20.00;7.55;;;9.60;99.90;;;;;;5089714;28;20161;-54
2023/12/12 12:01:58;;;;;;;25.35;9.20;;;9.70;99.90;;;;;;5090320;28;20177;-51
2023/12/12 12:04:24;;;;;;;14.15;6.43;;;9.70;99.90;;;;;;5090110;28;20172;-55
2023/12/12 12:06:50;;;;;;;21.60;5.95;;;9.60;99.90;;;;;;5106208;28;20534;-53
2023/12/12 12:09:16;;;;;;;16.45;7.65;;;9.50;99.90;;;;;;5110187;28;20173;-52
2023/12/12 12:11:51;;;;;;;18.27;6.63;;;9.70;99.90;;;;;;5109803;28;20196;-54
2023/12/12 12:14:23;;;;;;;21.90;11.10;;;9.60;99.90;;;;;;5109932;28;20261;-53
2023/12/12 12:16:58;;;;;;;28.73;11.00;;;9.70;99.90;;;;;;5109917;28;20168;-54
2023/12/12 12:19:37;;;;;;;16.40;7.22;;;9.60;99.90;;;;;;5110215;28;20568;-53
2023/12/12 12:22:09;;;;;;;22.17;7.57;;;9.70;99.90;;;;;;5109841;28;20156;-55
2023/12/12 12:24:43;;;;;;;24.50;11.18;;;9.70;99.90;;;;;;5109750;28;20571;-54
2023/12/12 12:27:08;;;;;;;32.90;12.02;;;9.70;99.90;;;;;;5104912;28;20651;-54
2023/12/12 12:29:34;;;;;;;60.03;29.98;;;9.50;99.90;;;;;;5093210;28;20270;-55
2023/12/12 12:32:13;;;;;;;29.02;12.13;;;9.50;99.90;;;;;;5093169;28;20582;-53
2023/12/12 12:34:39;;;;;;;20.50;8.57;;;9.60;99.90;;;;;;5093183;28;20655;-54
2023/12/12 12:37:04;;;;;;;31.35;11.55;;;9.60;99.90;;;;;;5093195;28;20161;-54
2023/12/12 12:39:41;;;;;;;23.48;10.75;;;9.60;99.90;;;;;;5093151;28;20177;-52
2023/12/12 12:42:07;;;;;;;23.35;9.63;;;9.80;99.90;;;;;;5093239;28;20190;-53